sensor_id;sensor_type;location;lat;lon;timestamp;temperature;humidity
41678;DHT22;27364;49.026;8.712;2023-05-16T00:00:03;12.60;99.90
41678;DHT22;27364;49.026;8.712;2023-05-16T00:02:34;12.60;99.90
41678;DHT22;27364;49.026;8.712;2023-05-16T00:05:00;12.60;99.90
41678;DHT22;27364;49.026;8.712;2023-05-16T00:07:25;12.50;99.90
41678;DHT22;27364;49.026;8.712;2023-05-16T00:09:51;12.50;99.90
41678;DHT22;27364;49.026;8.712;2023-05-16T00:12:16;12.50;99.90
41678;DHT22;27364;49.026;8.712;2023-05-16T00:14:44;12.50;99.90
41678;DHT22;27364;49.026;8.712;2023-05-16T00:17:09;12.50;99.90
41678;DHT22;27364;49.026;8.712;2023-05-16T00:19:39;12.40;99.90
41678;DHT22;27364;49.026;8.712;2023-05-16T00:22:06;12.40;99.90
41678;DHT22;27364;49.026;8.712;2023-05-16T00:24:33;12.40;99.90
41678;DHT22;27364;49.026;8.712;2023-05-16T00:26:58;12.40;99.90
41678;DHT22;27364;49.026;8.712;2023-05-16T00:29:24;12.40;99.90
41678;DHT22;27364;49.026;8.712;2023-05-16T00:31:49;12.30;99.90
41678;DHT22;27364;49.026;8.712;2023-05-16T00:34:15;12.30;99.90
41678;DHT22;27364;49.026;8.712;2023-05-16T00:36:40;12.30;99.90
41678;DHT22;27364;49.026;8.712;2023-05-16T00:39:06;12.30;99.90
41678;DHT22;27364;49.026;8.712;2023-05-16T00:41:33;12.30;99.90
41678;DHT22;27364;49.026;8.712;2023-05-16T00:43:58;12.30;99.90
41678;DHT22;27364;49.026;8.712;2023-05-16T00:46:24;12.30;99.90
41678;DHT22;27364;49.026;8.712;2023-05-16T00:48:49;12.30;99.90
41678;DHT22;27364;49.026;8.712;2023-05-16T00:51:16;12.30;99.90
41678;DHT22;27364;49.026;8.712;2023-05-16T00:53:42;12.30;99.90
41678;DHT22;27364;49.026;8.712;2023-05-16T00:56:08;12.30;99.90
41678;DHT22;27364;49.026;8.712;2023-05-16T00:58:34;12.20;99.90
41678;DHT22;27364;49.026;8.712;2023-05-16T01:01:01;12.30;99.90
41678;DHT22;27364;49.026;8.712;2023-05-16T01:03:28;12.20;99.90
41678;DHT22;27364;49.026;8.712;2023-05-16T01:05:54;12.20;99.90
41678;DHT22;27364;49.026;8.712;2023-05-16T01:08:19;12.20;99.90
41678;DHT22;27364;49.026;8.712;2023-05-16T01:11:08;12.30;99.90
41678;DHT22;27364;49.026;8.712;2023-05-16T01:16:23;12.30;99.90
41678;DHT22;27364;49.026;8.712;2023-05-16T01:21:52;12.20;99.90
41678;DHT22;27364;49.026;8.712;2023-05-16T01:24:35;12.20;99.90
41678;DHT22;27364;49.026;8.712;2023-05-16T01:27:08;12.20;99.90
41678;DHT22;27364;49.026;8.712;2023-05-16T01:29:34;12.20;99.90
41678;DHT22;27364;49.026;8.712;2023-05-16T01:32:00;12.20;99.90
41678;DHT22;27364;49.026;8.712;2023-05-16T01:34:25;12.10;99.90
41678;DHT22;27364;49.026;8.712;2023-05-16T01:36:59;12.20;99.90
41678;DHT22;27364;49.026;8.712;2023-05-16T01:39:40;12.10;99.90
41678;DHT22;27364;49.026;8.712;2023-05-16T01:42:14;12.10;99.90
41678;DHT22;27364;49.026;8.712;2023-05-16T01:47:13;12.00;99.90
41678;DHT22;27364;49.026;8.712;2023-05-16T01:49:45;12.00;99.90
41678;DHT22;27364;49.026;8.712;2023-05-16T01:52:19;12.00;99.90
41678;DHT22;27364;49.026;8.712;2023-05-16T01:54:47;12.10;99.90
41678;DHT22;27364;49.026;8.712;2023-05-16T01:57:15;12.00;99.90
41678;DHT22;27364;49.026;8.712;2023-05-16T01:59:41;12.00;99.90
41678;DHT22;27364;49.026;8.712;2023-05-16T02:02:08;12.00;99.90
41678;DHT22;27364;49.026;8.712;2023-05-16T02:04:33;12.00;99.90
41678;DHT22;27364;49.026;8.712;2023-05-16T02:06:59;12.00;99.90
41678;DHT22;27364;49.026;8.712;2023-05-16T02:09:26;12.00;99.90
41678;DHT22;27364;49.026;8.712;2023-05-16T02:11:51;12.00;99.90
41678;DHT22;27364;49.026;8.712;2023-05-16T02:14:17;12.00;99.90
41678;DHT22;27364;49.026;8.712;2023-05-16T02:16:43;12.00;99.90
41678;DHT22;27364;49.026;8.712;2023-05-16T02:19:08;12.00;99.90
41678;DHT22;27364;49.026;8.712;2023-05-16T02:21:34;12.00;99.90
41678;DHT22;27364;49.026;8.712;2023-05-16T02:24:00;12.00;99.90
41678;DHT22;27364;49.026;8.712;2023-05-16T02:26:26;12.00;99.90
41678;DHT22;27364;49.026;8.712;2023-05-16T02:28:51;12.00;99.90
41678;DHT22;27364;49.026;8.712;2023-05-16T02:31:30;12.00;99.90
41678;DHT22;27364;49.026;8.712;2023-05-16T02:34:00;12.00;99.90
41678;DHT22;27364;49.026;8.712;2023-05-16T02:36:26;12.00;99.90
41678;DHT22;27364;49.026;8.712;2023-05-16T02:38:51;12.00;99.90
41678;DHT22;27364;49.026;8.712;2023-05-16T02:41:17;12.00;99.90
41678;DHT22;27364;49.026;8.712;2023-05-16T02:43:43;12.00;99.90
41678;DHT22;27364;49.026;8.712;2023-05-16T02:46:24;12.00;99.90
41678;DHT22;27364;49.026;8.712;2023-05-16T02:48:50;12.00;99.90
41678;DHT22;27364;49.026;8.712;2023-05-16T02:51:17;12.00;99.90
41678;DHT22;27364;49.026;8.712;2023-05-16T02:53:43;12.00;99.90
41678;DHT22;27364;49.026;8.712;2023-05-16T02:56:08;11.90;99.90
41678;DHT22;27364;49.026;8.712;2023-05-16T02:58:34;11.90;99.90
41678;DHT22;27364;49.026;8.712;2023-05-16T03:01:00;11.90;99.90
41678;DHT22;27364;49.026;8.712;2023-05-16T03:03:25;12.00;99.90
41678;DHT22;27364;49.026;8.712;2023-05-16T03:05:51;12.00;99.90
41678;DHT22;27364;49.026;8.712;2023-05-16T03:08:17;12.00;99.90
41678;DHT22;27364;49.026;8.712;2023-05-16T03:10:43;12.00;99.90
41678;DHT22;27364;49.026;8.712;2023-05-16T03:13:08;12.10;99.90
41678;DHT22;27364;49.026;8.712;2023-05-16T03:15:33;12.10;99.90
41678;DHT22;27364;49.026;8.712;2023-05-16T03:17:59;12.10;99.90
41678;DHT22;27364;49.026;8.712;2023-05-16T03:20:25;12.10;99.90
41678;DHT22;27364;49.026;8.712;2023-05-16T03:22:50;12.10;99.90
41678;DHT22;27364;49.026;8.712;2023-05-16T03:25:16;12.10;99.90
41678;DHT22;27364;49.026;8.712;2023-05-16T03:27:41;12.10;99.90
41678;DHT22;27364;49.026;8.712;2023-05-16T03:30:07;12.10;99.90
41678;DHT22;27364;49.026;8.712;2023-05-16T03:32:33;12.10;99.90
41678;DHT22;27364;49.026;8.712;2023-05-16T03:34:59;12.10;99.90
41678;DHT22;27364;49.026;8.712;2023-05-16T03:37:24;12.10;99.90
41678;DHT22;27364;49.026;8.712;2023-05-16T03:39:50;12.20;99.90
41678;DHT22;27364;49.026;8.712;2023-05-16T03:42:16;12.10;99.90
41678;DHT22;27364;49.026;8.712;2023-05-16T03:44:42;12.10;99.90
41678;DHT22;27364;49.026;8.712;2023-05-16T03:47:08;12.10;99.90
41678;DHT22;27364;49.026;8.712;2023-05-16T03:49:34;12.10;99.90
41678;DHT22;27364;49.026;8.712;2023-05-16T03:52:01;12.10;99.90
41678;DHT22;27364;49.026;8.712;2023-05-16T03:54:27;12.20;99.90
41678;DHT22;27364;49.026;8.712;2023-05-16T03:56:52;12.20;99.90
41678;DHT22;27364;49.026;8.712;2023-05-16T03:59:18;12.20;99.90
41678;DHT22;27364;49.026;8.712;2023-05-16T04:01:43;12.20;99.90
41678;DHT22;27364;49.026;8.712;2023-05-16T04:04:09;12.20;99.90
41678;DHT22;27364;49.026;8.712;2023-05-16T04:06:34;12.20;99.90
41678;DHT22;27364;49.026;8.712;2023-05-16T04:09:00;12.20;99.90
41678;DHT22;27364;49.026;8.712;2023-05-16T04:11:26;12.20;99.90
41678;DHT22;27364;49.026;8.712;2023-05-16T04:13:51;12.20;99.90
41678;DHT22;27364;49.026;8.712;2023-05-16T04:16:18;12.20;99.90
41678;DHT22;27364;49.026;8.712;2023-05-16T04:18:44;12.20;99.90
41678;DHT22;27364;49.026;8.712;2023-05-16T04:21:09;12.20;99.90
41678;DHT22;27364;49.026;8.712;2023-05-16T04:23:42;12.20;99.90
41678;DHT22;27364;49.026;8.712;2023-05-16T04:26:07;12.20;99.90
41678;DHT22;27364;49.026;8.712;2023-05-16T04:28:33;12.20;99.90
41678;DHT22;27364;49.026;8.712;2023-05-16T04:30:59;12.20;99.90
41678;DHT22;27364;49.026;8.712;2023-05-16T04:33:24;12.20;99.90
41678;DHT22;27364;49.026;8.712;2023-05-16T04:35:50;12.20;99.90
41678;DHT22;27364;49.026;8.712;2023-05-16T04:38:17;12.20;99.90
41678;DHT22;27364;49.026;8.712;2023-05-16T04:40:42;12.20;99.90
41678;DHT22;27364;49.026;8.712;2023-05-16T04:43:08;12.20;99.90
41678;DHT22;27364;49.026;8.712;2023-05-16T04:45:33;12.20;99.90
41678;DHT22;27364;49.026;8.712;2023-05-16T04:48:00;12.20;99.90
41678;DHT22;27364;49.026;8.712;2023-05-16T04:50:26;12.10;99.90
41678;DHT22;27364;49.026;8.712;2023-05-16T04:52:51;12.10;99.90
41678;DHT22;27364;49.026;8.712;2023-05-16T04:55:17;12.10;99.90
41678;DHT22;27364;49.026;8.712;2023-05-16T04:57:43;12.10;99.90
41678;DHT22;27364;49.026;8.712;2023-05-16T05:00:09;12.10;99.90
41678;DHT22;27364;49.026;8.712;2023-05-16T05:02:36;12.10;99.90
41678;DHT22;27364;49.026;8.712;2023-05-16T05:05:03;12.10;99.90
41678;DHT22;27364;49.026;8.712;2023-05-16T05:07:29;12.00;99.90
41678;DHT22;27364;49.026;8.712;2023-05-16T05:09:54;12.00;99.90
41678;DHT22;27364;49.026;8.712;2023-05-16T05:12:20;12.00;99.90
41678;DHT22;27364;49.026;8.712;2023-05-16T05:14:46;11.90;99.90
41678;DHT22;27364;49.026;8.712;2023-05-16T05:17:12;11.80;99.90
41678;DHT22;27364;49.026;8.712;2023-05-16T05:19:37;11.80;99.90
41678;DHT22;27364;49.026;8.712;2023-05-16T05:22:03;11.80;99.90
41678;DHT22;27364;49.026;8.712;2023-05-16T05:24:28;11.80;99.90
41678;DHT22;27364;49.026;8.712;2023-05-16T05:26:54;11.80;99.90
41678;DHT22;27364;49.026;8.712;2023-05-16T05:29:19;11.80;99.90
41678;DHT22;27364;49.026;8.712;2023-05-16T05:31:46;11.80;99.90
41678;DHT22;27364;49.026;8.712;2023-05-16T05:34:12;11.80;99.90
41678;DHT22;27364;49.026;8.712;2023-05-16T05:36:37;11.80;99.90
41678;DHT22;27364;49.026;8.712;2023-05-16T05:39:03;11.80;99.90
41678;DHT22;27364;49.026;8.712;2023-05-16T05:41:28;11.70;99.90
41678;DHT22;27364;49.026;8.712;2023-05-16T05:43:54;11.80;99.90
41678;DHT22;27364;49.026;8.712;2023-05-16T05:46:20;11.80;99.90
41678;DHT22;27364;49.026;8.712;2023-05-16T05:48:45;11.80;99.90
41678;DHT22;27364;49.026;8.712;2023-05-16T05:51:11;11.80;99.90
41678;DHT22;27364;49.026;8.712;2023-05-16T05:53:39;11.80;99.90
41678;DHT22;27364;49.026;8.712;2023-05-16T05:56:04;11.80;99.90
41678;DHT22;27364;49.026;8.712;2023-05-16T05:58:30;11.80;99.90
41678;DHT22;27364;49.026;8.712;2023-05-16T06:00:56;11.90;99.90
41678;DHT22;27364;49.026;8.712;2023-05-16T06:03:22;11.90;99.90
41678;DHT22;27364;49.026;8.712;2023-05-16T06:05:47;11.80;99.90
41678;DHT22;27364;49.026;8.712;2023-05-16T06:08:13;11.80;99.90
41678;DHT22;27364;49.026;8.712;2023-05-16T06:10:38;11.80;99.90
41678;DHT22;27364;49.026;8.712;2023-05-16T06:13:04;11.70;99.90
41678;DHT22;27364;49.026;8.712;2023-05-16T06:15:29;11.80;99.90
41678;DHT22;27364;49.026;8.712;2023-05-16T06:17:55;11.80;99.90
41678;DHT22;27364;49.026;8.712;2023-05-16T06:20:21;11.80;99.90
41678;DHT22;27364;49.026;8.712;2023-05-16T06:22:46;11.70;99.90
41678;DHT22;27364;49.026;8.712;2023-05-16T06:25:12;11.80;99.90
41678;DHT22;27364;49.026;8.712;2023-05-16T06:27:37;11.80;99.90
41678;DHT22;27364;49.026;8.712;2023-05-16T06:30:03;11.70;99.90
41678;DHT22;27364;49.026;8.712;2023-05-16T06:32:29;11.70;99.90
41678;DHT22;27364;49.026;8.712;2023-05-16T06:34:55;11.80;99.90
41678;DHT22;27364;49.026;8.712;2023-05-16T06:37:20;11.80;99.90
41678;DHT22;27364;49.026;8.712;2023-05-16T06:39:47;11.80;99.90
41678;DHT22;27364;49.026;8.712;2023-05-16T06:42:13;11.70;99.90
41678;DHT22;27364;49.026;8.712;2023-05-16T06:44:38;11.70;99.90
41678;DHT22;27364;49.026;8.712;2023-05-16T06:47:04;11.70;99.90
41678;DHT22;27364;49.026;8.712;2023-05-16T06:49:30;11.70;99.90
41678;DHT22;27364;49.026;8.712;2023-05-16T06:51:55;11.70;99.90
41678;DHT22;27364;49.026;8.712;2023-05-16T06:54:21;11.70;99.90
41678;DHT22;27364;49.026;8.712;2023-05-16T06:56:46;11.80;99.90
41678;DHT22;27364;49.026;8.712;2023-05-16T06:59:12;11.80;99.90
41678;DHT22;27364;49.026;8.712;2023-05-16T07:01:37;11.80;99.90
41678;DHT22;27364;49.026;8.712;2023-05-16T07:04:03;11.80;99.90
41678;DHT22;27364;49.026;8.712;2023-05-16T07:06:28;11.80;99.90
41678;DHT22;27364;49.026;8.712;2023-05-16T07:08:54;11.80;99.90
41678;DHT22;27364;49.026;8.712;2023-05-16T07:11:19;11.90;99.90
41678;DHT22;27364;49.026;8.712;2023-05-16T07:13:45;11.90;99.90
41678;DHT22;27364;49.026;8.712;2023-05-16T07:16:11;12.00;99.90
41678;DHT22;27364;49.026;8.712;2023-05-16T07:18:36;12.00;99.90
41678;DHT22;27364;49.026;8.712;2023-05-16T07:21:02;12.00;99.90
41678;DHT22;27364;49.026;8.712;2023-05-16T07:23:28;12.10;99.90
41678;DHT22;27364;49.026;8.712;2023-05-16T07:25:53;12.10;99.90
41678;DHT22;27364;49.026;8.712;2023-05-16T07:28:19;12.10;99.90
41678;DHT22;27364;49.026;8.712;2023-05-16T07:30:44;12.20;99.90
41678;DHT22;27364;49.026;8.712;2023-05-16T07:33:11;12.20;99.90
41678;DHT22;27364;49.026;8.712;2023-05-16T07:35:36;12.20;99.90
41678;DHT22;27364;49.026;8.712;2023-05-16T07:38:03;12.20;99.90
41678;DHT22;27364;49.026;8.712;2023-05-16T07:40:28;12.30;99.90
41678;DHT22;27364;49.026;8.712;2023-05-16T07:42:54;12.30;99.90
41678;DHT22;27364;49.026;8.712;2023-05-16T07:45:20;12.40;99.90
41678;DHT22;27364;49.026;8.712;2023-05-16T07:47:45;12.40;99.90
41678;DHT22;27364;49.026;8.712;2023-05-16T07:50:11;12.40;99.90
41678;DHT22;27364;49.026;8.712;2023-05-16T07:52:36;12.50;99.90
41678;DHT22;27364;49.026;8.712;2023-05-16T07:55:02;12.50;99.90
41678;DHT22;27364;49.026;8.712;2023-05-16T07:57:28;12.50;99.90
41678;DHT22;27364;49.026;8.712;2023-05-16T07:59:54;12.60;99.90
41678;DHT22;27364;49.026;8.712;2023-05-16T08:02:21;12.60;99.90
41678;DHT22;27364;49.026;8.712;2023-05-16T08:04:48;12.60;99.90
41678;DHT22;27364;49.026;8.712;2023-05-16T08:07:14;12.70;99.90
41678;DHT22;27364;49.026;8.712;2023-05-16T08:09:40;12.70;99.90
41678;DHT22;27364;49.026;8.712;2023-05-16T08:12:05;12.80;99.90
41678;DHT22;27364;49.026;8.712;2023-05-16T08:14:31;12.80;99.90
41678;DHT22;27364;49.026;8.712;2023-05-16T08:16:58;12.80;99.90
41678;DHT22;27364;49.026;8.712;2023-05-16T08:19:24;12.80;99.90
41678;DHT22;27364;49.026;8.712;2023-05-16T08:21:49;12.80;99.90
41678;DHT22;27364;49.026;8.712;2023-05-16T08:24:15;12.80;99.90
41678;DHT22;27364;49.026;8.712;2023-05-16T08:26:40;12.80;99.90
41678;DHT22;27364;49.026;8.712;2023-05-16T08:29:06;12.80;99.90
41678;DHT22;27364;49.026;8.712;2023-05-16T08:31:31;12.90;99.90
41678;DHT22;27364;49.026;8.712;2023-05-16T08:33:57;12.90;99.90
41678;DHT22;27364;49.026;8.712;2023-05-16T08:36:22;12.90;99.90
41678;DHT22;27364;49.026;8.712;2023-05-16T08:38:51;13.00;99.90
41678;DHT22;27364;49.026;8.712;2023-05-16T08:41:17;13.00;99.90
41678;DHT22;27364;49.026;8.712;2023-05-16T08:43:42;13.00;99.90
41678;DHT22;27364;49.026;8.712;2023-05-16T08:46:08;13.00;99.90
41678;DHT22;27364;49.026;8.712;2023-05-16T08:48:35;13.00;99.90
41678;DHT22;27364;49.026;8.712;2023-05-16T08:51:02;13.00;99.90
41678;DHT22;27364;49.026;8.712;2023-05-16T08:53:31;13.00;99.90
41678;DHT22;27364;49.026;8.712;2023-05-16T08:56:03;13.00;99.90
41678;DHT22;27364;49.026;8.712;2023-05-16T08:58:29;13.00;99.90
41678;DHT22;27364;49.026;8.712;2023-05-16T09:00:55;13.00;99.90
41678;DHT22;27364;49.026;8.712;2023-05-16T09:03:21;13.00;99.90
41678;DHT22;27364;49.026;8.712;2023-05-16T09:05:48;13.00;99.90
41678;DHT22;27364;49.026;8.712;2023-05-16T09:08:14;13.00;99.90
41678;DHT22;27364;49.026;8.712;2023-05-16T09:10:40;12.90;99.90
41678;DHT22;27364;49.026;8.712;2023-05-16T09:13:06;12.90;99.90
41678;DHT22;27364;49.026;8.712;2023-05-16T09:15:32;12.80;99.90
41678;DHT22;27364;49.026;8.712;2023-05-16T09:18:01;12.90;99.90
41678;DHT22;27364;49.026;8.712;2023-05-16T09:20:27;12.90;99.90
41678;DHT22;27364;49.026;8.712;2023-05-16T09:22:55;12.80;99.90
41678;DHT22;27364;49.026;8.712;2023-05-16T09:25:21;12.80;99.90
41678;DHT22;27364;49.026;8.712;2023-05-16T09:27:51;12.70;99.90
41678;DHT22;27364;49.026;8.712;2023-05-16T09:30:26;12.80;99.90
41678;DHT22;27364;49.026;8.712;2023-05-16T09:32:52;12.70;99.90
41678;DHT22;27364;49.026;8.712;2023-05-16T09:35:22;12.70;99.90
41678;DHT22;27364;49.026;8.712;2023-05-16T09:37:49;12.80;99.90
41678;DHT22;27364;49.026;8.712;2023-05-16T09:40:22;12.70;99.90
41678;DHT22;27364;49.026;8.712;2023-05-16T09:43:04;12.70;99.90
41678;DHT22;27364;49.026;8.712;2023-05-16T09:45:31;12.70;99.90
41678;DHT22;27364;49.026;8.712;2023-05-16T09:48:07;12.80;99.90
41678;DHT22;27364;49.026;8.712;2023-05-16T09:50:35;12.90;99.90
41678;DHT22;27364;49.026;8.712;2023-05-16T09:53:02;13.00;99.90
41678;DHT22;27364;49.026;8.712;2023-05-16T09:55:28;13.10;99.90
41678;DHT22;27364;49.026;8.712;2023-05-16T09:57:54;13.10;99.90
41678;DHT22;27364;49.026;8.712;2023-05-16T10:00:20;13.20;99.90
41678;DHT22;27364;49.026;8.712;2023-05-16T10:02:46;13.10;99.90
41678;DHT22;27364;49.026;8.712;2023-05-16T10:05:13;13.10;99.90
41678;DHT22;27364;49.026;8.712;2023-05-16T10:07:41;13.20;99.90
41678;DHT22;27364;49.026;8.712;2023-05-16T10:10:07;13.20;99.90
41678;DHT22;27364;49.026;8.712;2023-05-16T10:12:34;13.20;99.90
41678;DHT22;27364;49.026;8.712;2023-05-16T10:15:03;13.20;99.90
41678;DHT22;27364;49.026;8.712;2023-05-16T10:17:35;13.20;99.90
41678;DHT22;27364;49.026;8.712;2023-05-16T10:20:05;13.30;99.90
41678;DHT22;27364;49.026;8.712;2023-05-16T10:22:33;13.30;99.90
41678;DHT22;27364;49.026;8.712;2023-05-16T10:27:53;13.40;99.90
41678;DHT22;27364;49.026;8.712;2023-05-16T10:30:19;13.30;99.90
41678;DHT22;27364;49.026;8.712;2023-05-16T10:32:45;13.40;99.90
41678;DHT22;27364;49.026;8.712;2023-05-16T10:35:12;13.30;99.90
41678;DHT22;27364;49.026;8.712;2023-05-16T10:37:38;13.30;99.90
41678;DHT22;27364;49.026;8.712;2023-05-16T10:40:05;13.20;99.90
41678;DHT22;27364;49.026;8.712;2023-05-16T10:42:32;13.20;99.90
41678;DHT22;27364;49.026;8.712;2023-05-16T10:45:18;13.20;99.90
41678;DHT22;27364;49.026;8.712;2023-05-16T10:48:09;13.20;99.90
41678;DHT22;27364;49.026;8.712;2023-05-16T10:50:40;13.20;99.90
41678;DHT22;27364;49.026;8.712;2023-05-16T10:53:24;13.30;99.90
41678;DHT22;27364;49.026;8.712;2023-05-16T11:01:33;13.30;99.90
41678;DHT22;27364;49.026;8.712;2023-05-16T11:04:05;13.20;99.90
41678;DHT22;27364;49.026;8.712;2023-05-16T11:06:48;13.10;99.90
41678;DHT22;27364;49.026;8.712;2023-05-16T11:09:22;13.00;99.90
41678;DHT22;27364;49.026;8.712;2023-05-16T11:17:13;12.70;99.90
41678;DHT22;27364;49.026;8.712;2023-05-16T11:19:44;12.70;99.90
41678;DHT22;27364;49.026;8.712;2023-05-16T11:25:02;12.60;99.90
41678;DHT22;27364;49.026;8.712;2023-05-16T11:27:31;12.50;99.90
41678;DHT22;27364;49.026;8.712;2023-05-16T11:30:18;12.50;99.90
41678;DHT22;27364;49.026;8.712;2023-05-16T11:32:45;12.40;99.90
41678;DHT22;27364;49.026;8.712;2023-05-16T11:35:13;12.30;99.90
41678;DHT22;27364;49.026;8.712;2023-05-16T11:37:39;12.20;99.90
41678;DHT22;27364;49.026;8.712;2023-05-16T11:40:06;12.20;99.90
41678;DHT22;27364;49.026;8.712;2023-05-16T11:42:46;12.10;99.90
41678;DHT22;27364;49.026;8.712;2023-05-16T11:45:16;12.10;99.90
41678;DHT22;27364;49.026;8.712;2023-05-16T11:47:43;12.10;99.90
41678;DHT22;27364;49.026;8.712;2023-05-16T11:50:14;12.10;99.90
41678;DHT22;27364;49.026;8.712;2023-05-16T11:52:43;12.10;99.90
41678;DHT22;27364;49.026;8.712;2023-05-16T11:55:10;12.00;99.90
41678;DHT22;27364;49.026;8.712;2023-05-16T11:57:37;12.00;99.90
41678;DHT22;27364;49.026;8.712;2023-05-16T12:00:04;12.10;99.90
41678;DHT22;27364;49.026;8.712;2023-05-16T12:02:35;12.10;99.90
41678;DHT22;27364;49.026;8.712;2023-05-16T12:05:08;12.20;99.90
41678;DHT22;27364;49.026;8.712;2023-05-16T12:07:37;12.20;99.90
41678;DHT22;27364;49.026;8.712;2023-05-16T12:10:11;12.20;99.90
41678;DHT22;27364;49.026;8.712;2023-05-16T12:12:41;12.20;99.90
41678;DHT22;27364;49.026;8.712;2023-05-16T12:15:08;12.20;99.90
41678;DHT22;27364;49.026;8.712;2023-05-16T12:17:38;12.20;99.90
41678;DHT22;27364;49.026;8.712;2023-05-16T12:20:05;12.30;99.90
41678;DHT22;27364;49.026;8.712;2023-05-16T12:22:32;12.30;99.90
41678;DHT22;27364;49.026;8.712;2023-05-16T12:25:20;12.40;99.90
41678;DHT22;27364;49.026;8.712;2023-05-16T12:27:45;12.50;99.90
41678;DHT22;27364;49.026;8.712;2023-05-16T12:30:11;12.60;99.90
41678;DHT22;27364;49.026;8.712;2023-05-16T12:32:37;12.70;99.90
41678;DHT22;27364;49.026;8.712;2023-05-16T12:35:03;12.90;99.90
41678;DHT22;27364;49.026;8.712;2023-05-16T12:37:28;13.00;99.90
41678;DHT22;27364;49.026;8.712;2023-05-16T12:39:59;13.10;99.90
41678;DHT22;27364;49.026;8.712;2023-05-16T12:42:26;13.30;99.90
41678;DHT22;27364;49.026;8.712;2023-05-16T12:44:54;13.40;99.90
41678;DHT22;27364;49.026;8.712;2023-05-16T12:47:20;13.50;99.90
41678;DHT22;27364;49.026;8.712;2023-05-16T12:49:46;13.60;99.90
41678;DHT22;27364;49.026;8.712;2023-05-16T12:52:19;13.70;99.90
41678;DHT22;27364;49.026;8.712;2023-05-16T12:54:48;13.80;99.90
41678;DHT22;27364;49.026;8.712;2023-05-16T12:57:14;13.90;99.90
41678;DHT22;27364;49.026;8.712;2023-05-16T12:59:40;13.90;99.90
41678;DHT22;27364;49.026;8.712;2023-05-16T13:02:06;13.90;99.90
41678;DHT22;27364;49.026;8.712;2023-05-16T13:04:31;14.00;99.90
41678;DHT22;27364;49.026;8.712;2023-05-16T13:06:57;14.20;99.90
41678;DHT22;27364;49.026;8.712;2023-05-16T13:09:22;14.40;99.90
41678;DHT22;27364;49.026;8.712;2023-05-16T13:11:48;14.60;99.90
41678;DHT22;27364;49.026;8.712;2023-05-16T13:14:15;14.80;99.90
41678;DHT22;27364;49.026;8.712;2023-05-16T13:16:42;15.00;99.90
41678;DHT22;27364;49.026;8.712;2023-05-16T13:19:08;15.20;99.90
41678;DHT22;27364;49.026;8.712;2023-05-16T13:21:33;15.40;99.90
41678;DHT22;27364;49.026;8.712;2023-05-16T13:23:59;15.50;99.90
41678;DHT22;27364;49.026;8.712;2023-05-16T13:26:25;15.50;99.90
41678;DHT22;27364;49.026;8.712;2023-05-16T13:28:51;15.50;99.90
41678;DHT22;27364;49.026;8.712;2023-05-16T13:31:18;15.60;99.90
41678;DHT22;27364;49.026;8.712;2023-05-16T13:33:44;15.50;99.90
41678;DHT22;27364;49.026;8.712;2023-05-16T13:36:10;15.50;99.90
41678;DHT22;27364;49.026;8.712;2023-05-16T13:38:35;15.50;99.90
41678;DHT22;27364;49.026;8.712;2023-05-16T13:41:01;15.50;99.90
41678;DHT22;27364;49.026;8.712;2023-05-16T13:43:26;15.30;99.90
41678;DHT22;27364;49.026;8.712;2023-05-16T13:45:52;15.10;99.90
41678;DHT22;27364;49.026;8.712;2023-05-16T13:48:18;15.00;99.90
41678;DHT22;27364;49.026;8.712;2023-05-16T13:50:43;15.00;99.90
41678;DHT22;27364;49.026;8.712;2023-05-16T13:53:09;15.20;99.90
41678;DHT22;27364;49.026;8.712;2023-05-16T13:55:34;15.40;99.90
41678;DHT22;27364;49.026;8.712;2023-05-16T13:58:00;15.40;99.90
41678;DHT22;27364;49.026;8.712;2023-05-16T14:00:27;15.40;99.90
41678;DHT22;27364;49.026;8.712;2023-05-16T14:02:53;15.30;99.90
41678;DHT22;27364;49.026;8.712;2023-05-16T14:05:18;15.20;99.90
41678;DHT22;27364;49.026;8.712;2023-05-16T14:07:44;15.10;99.90
41678;DHT22;27364;49.026;8.712;2023-05-16T14:10:10;15.00;99.90
41678;DHT22;27364;49.026;8.712;2023-05-16T14:12:36;14.90;99.90
41678;DHT22;27364;49.026;8.712;2023-05-16T14:15:02;15.00;99.90
41678;DHT22;27364;49.026;8.712;2023-05-16T14:17:28;15.00;99.90
41678;DHT22;27364;49.026;8.712;2023-05-16T14:19:53;14.90;99.90
41678;DHT22;27364;49.026;8.712;2023-05-16T14:22:19;14.80;99.90
41678;DHT22;27364;49.026;8.712;2023-05-16T14:24:44;14.70;99.90
41678;DHT22;27364;49.026;8.712;2023-05-16T14:27:10;14.60;99.90
41678;DHT22;27364;49.026;8.712;2023-05-16T14:29:35;14.50;99.90
41678;DHT22;27364;49.026;8.712;2023-05-16T14:32:01;14.50;99.90
41678;DHT22;27364;49.026;8.712;2023-05-16T14:34:27;14.70;99.90
41678;DHT22;27364;49.026;8.712;2023-05-16T14:36:52;14.70;99.90
41678;DHT22;27364;49.026;8.712;2023-05-16T14:39:18;14.70;99.90
41678;DHT22;27364;49.026;8.712;2023-05-16T14:41:43;14.70;99.90
41678;DHT22;27364;49.026;8.712;2023-05-16T14:44:09;14.60;99.90
41678;DHT22;27364;49.026;8.712;2023-05-16T14:46:34;14.60;99.90
41678;DHT22;27364;49.026;8.712;2023-05-16T14:49:00;14.60;99.90
41678;DHT22;27364;49.026;8.712;2023-05-16T14:51:25;14.60;99.90
41678;DHT22;27364;49.026;8.712;2023-05-16T14:53:51;14.50;99.90
41678;DHT22;27364;49.026;8.712;2023-05-16T14:56:16;14.50;99.90
41678;DHT22;27364;49.026;8.712;2023-05-16T14:58:42;14.50;99.90
41678;DHT22;27364;49.026;8.712;2023-05-16T15:01:07;14.50;99.90
41678;DHT22;27364;49.026;8.712;2023-05-16T15:03:33;14.70;99.90
41678;DHT22;27364;49.026;8.712;2023-05-16T15:05:59;14.90;99.90
41678;DHT22;27364;49.026;8.712;2023-05-16T15:08:24;14.90;99.90
41678;DHT22;27364;49.026;8.712;2023-05-16T15:10:51;14.90;99.90
41678;DHT22;27364;49.026;8.712;2023-05-16T15:13:16;14.90;99.90
41678;DHT22;27364;49.026;8.712;2023-05-16T15:15:42;14.90;99.90
41678;DHT22;27364;49.026;8.712;2023-05-16T15:18:07;14.90;99.90
41678;DHT22;27364;49.026;8.712;2023-05-16T15:20:34;14.80;99.90
41678;DHT22;27364;49.026;8.712;2023-05-16T15:23:00;14.70;99.90
41678;DHT22;27364;49.026;8.712;2023-05-16T15:25:26;14.70;99.90
41678;DHT22;27364;49.026;8.712;2023-05-16T15:27:52;14.70;99.90
41678;DHT22;27364;49.026;8.712;2023-05-16T15:30:17;14.60;99.90
41678;DHT22;27364;49.026;8.712;2023-05-16T15:32:43;14.60;99.90
41678;DHT22;27364;49.026;8.712;2023-05-16T15:35:09;14.60;99.90
41678;DHT22;27364;49.026;8.712;2023-05-16T15:37:34;14.60;99.90
41678;DHT22;27364;49.026;8.712;2023-05-16T15:40:00;14.50;99.30
41678;DHT22;27364;49.026;8.712;2023-05-16T15:42:26;14.40;98.00
41678;DHT22;27364;49.026;8.712;2023-05-16T15:44:51;14.40;96.70
41678;DHT22;27364;49.026;8.712;2023-05-16T15:47:17;14.30;96.60
41678;DHT22;27364;49.026;8.712;2023-05-16T15:49:42;14.30;96.30
41678;DHT22;27364;49.026;8.712;2023-05-16T15:52:08;14.20;94.90